createdAt,value
2023-01-12T00:01:55.906Z,100.00
2023-01-12T00:04:23.560Z,100.00
2023-01-12T00:06:51.137Z,100.00
2023-01-12T00:09:18.625Z,100.00
2023-01-12T00:11:46.155Z,100.00
2023-01-12T00:14:15.451Z,100.00
2023-01-12T00:16:43.330Z,99.83
2023-01-12T00:19:12.764Z,100.00
2023-01-12T00:21:56.335Z,100.00
2023-01-12T00:24:25.567Z,99.95
2023-01-12T00:26:53.672Z,99.04
2023-01-12T00:29:23.161Z,98.54
2023-01-12T00:31:50.840Z,99.53
2023-01-12T00:34:18.332Z,99.67
2023-01-12T00:36:47.073Z,98.65
2023-01-12T00:39:15.028Z,98.97
2023-01-12T00:42:00.800Z,98.90
2023-01-12T00:44:47.154Z,99.59
2023-01-12T00:47:15.203Z,100.00
2023-01-12T00:49:43.305Z,100.00
2023-01-12T00:52:18.254Z,100.00
2023-01-12T00:54:52.924Z,100.00
2023-01-12T00:57:20.387Z,100.00
2023-01-12T00:59:49.243Z,100.00
2023-01-12T01:02:16.859Z,100.00
2023-01-12T01:04:44.466Z,100.00
2023-01-12T01:07:12.595Z,100.00
2023-01-12T01:09:44.225Z,100.00
2023-01-12T01:12:11.978Z,100.00
2023-01-12T01:14:39.617Z,100.00
2023-01-12T01:17:08.530Z,100.00
2023-01-12T01:19:36.942Z,100.00
2023-01-12T01:22:04.599Z,100.00
2023-01-12T01:24:32.095Z,100.00
2023-01-12T01:26:59.562Z,100.00
2023-01-12T01:29:27.052Z,100.00
2023-01-12T01:31:55.713Z,100.00
2023-01-12T01:34:24.655Z,100.00
2023-01-12T01:36:52.135Z,100.00
2023-01-12T01:39:19.742Z,100.00
2023-01-12T01:41:47.964Z,100.00
2023-01-12T01:44:51.100Z,100.00
2023-01-12T01:47:24.391Z,100.00
2023-01-12T01:49:55.498Z,100.00
2023-01-12T01:52:26.122Z,100.00
2023-01-12T01:54:56.108Z,100.00
2023-01-12T01:57:25.491Z,100.00
2023-01-12T01:59:55.530Z,100.00
2023-01-12T02:02:24.089Z,100.00
2023-01-12T02:04:54.184Z,100.00
2023-01-12T02:07:22.135Z,100.00
2023-01-12T02:09:52.058Z,100.00
2023-01-12T02:12:37.646Z,100.00
2023-01-12T02:15:24.976Z,100.00
2023-01-12T02:18:03.528Z,100.00
2023-01-12T02:20:59.125Z,100.00
2023-01-12T02:24:04.059Z,100.00
2023-01-12T02:27:18.902Z,100.00
2023-01-12T02:30:24.569Z,100.00
2023-01-12T02:33:01.671Z,100.00
2023-01-12T02:35:34.052Z,100.00
2023-01-12T02:38:08.147Z,100.00
2023-01-12T02:40:38.113Z,100.00
2023-01-12T02:43:10.144Z,100.00
2023-01-12T02:45:43.324Z,100.00
2023-01-12T02:48:24.082Z,100.00
2023-01-12T02:50:55.546Z,100.00
2023-01-12T02:53:25.993Z,100.00
2023-01-12T02:55:53.904Z,100.00
2023-01-12T02:58:25.759Z,100.00
2023-01-12T03:00:55.950Z,100.00
2023-01-12T03:03:25.716Z,100.00
2023-01-12T03:05:56.508Z,100.00
2023-01-12T03:08:34.811Z,100.00
2023-01-12T03:11:07.611Z,100.00
2023-01-12T03:13:37.172Z,100.00
2023-01-12T03:16:10.004Z,100.00
2023-01-12T03:18:45.032Z,100.00
2023-01-12T03:21:18.001Z,100.00
2023-01-12T03:23:48.503Z,100.00
2023-01-12T03:26:19.381Z,100.00
2023-01-12T03:28:51.052Z,100.00
2023-01-12T03:31:18.703Z,100.00
2023-01-12T03:33:47.719Z,100.00
2023-01-12T03:36:22.520Z,100.00
2023-01-12T03:38:59.056Z,100.00
2023-01-12T03:41:37.985Z,100.00
2023-01-12T03:44:09.036Z,100.00
2023-01-12T03:46:40.801Z,100.00
2023-01-12T03:49:12.463Z,100.00
2023-01-12T03:51:45.746Z,100.00
2023-01-12T03:54:14.253Z,100.00
2023-01-12T03:56:51.046Z,100.00
2023-01-12T03:59:19.529Z,100.00
2023-01-12T04:01:53.311Z,100.00
2023-01-12T04:04:22.943Z,100.00
2023-01-12T04:06:50.480Z,100.00
2023-01-12T04:09:19.353Z,100.00
2023-01-12T04:12:07.220Z,100.00
2023-01-12T04:14:34.772Z,100.00
2023-01-12T04:17:02.305Z,100.00
2023-01-12T04:19:32.492Z,100.00
2023-01-12T04:22:19.951Z,100.00
2023-01-12T04:24:49.363Z,100.00
2023-01-12T04:27:17.121Z,100.00
2023-01-12T04:29:45.620Z,100.00
2023-01-12T04:32:15.578Z,100.00
2023-01-12T04:34:46.246Z,100.00
2023-01-12T04:38:11.743Z,100.00
2023-01-12T04:40:39.251Z,100.00
2023-01-12T04:43:08.682Z,100.00
2023-01-12T04:45:42.901Z,100.00
2023-01-12T04:48:13.441Z,100.00
2023-01-12T04:50:45.236Z,100.00
2023-01-12T04:53:18.488Z,100.00
2023-01-12T04:55:46.246Z,100.00
2023-01-12T04:58:13.900Z,100.00
2023-01-12T05:00:41.676Z,100.00
2023-01-12T05:03:12.167Z,100.00
2023-01-12T05:05:39.956Z,100.00
2023-01-12T05:08:27.627Z,100.00
2023-01-12T05:10:56.872Z,100.00
2023-01-12T05:13:25.423Z,100.00
2023-01-12T05:15:52.888Z,100.00
2023-01-12T05:18:20.522Z,100.00
2023-01-12T05:20:48.100Z,100.00
2023-01-12T05:23:16.969Z,100.00
2023-01-12T05:25:44.491Z,100.00
2023-01-12T05:28:11.969Z,100.00
2023-01-12T05:30:40.096Z,100.00
2023-01-12T05:33:07.679Z,100.00
2023-01-12T05:35:35.250Z,100.00
2023-01-12T05:38:03.806Z,100.00
2023-01-12T05:40:32.699Z,100.00
2023-01-12T05:43:19.080Z,100.00
2023-01-12T05:45:46.774Z,100.00
2023-01-12T05:48:14.506Z,100.00
2023-01-12T05:50:42.319Z,100.00
2023-01-12T05:53:10.404Z,100.00
2023-01-12T05:55:39.749Z,100.00
2023-01-12T05:58:08.217Z,100.00
2023-01-12T06:00:37.873Z,100.00
2023-01-12T06:03:05.958Z,100.00
2023-01-12T06:05:33.556Z,100.00
2023-01-12T06:08:03.918Z,100.00
2023-01-12T06:10:34.615Z,100.00
2023-01-12T06:13:21.269Z,100.00
2023-01-12T06:15:49.090Z,100.00
2023-01-12T06:18:18.680Z,100.00
2023-01-12T06:20:46.312Z,100.00
2023-01-12T06:23:14.070Z,100.00
2023-01-12T06:25:41.584Z,100.00
2023-01-12T06:28:13.813Z,100.00
2023-01-12T06:30:41.283Z,100.00
2023-01-12T06:33:08.779Z,100.00
2023-01-12T06:35:36.299Z,100.00
2023-01-12T06:38:04.013Z,100.00
2023-01-12T06:40:31.851Z,100.00
2023-01-12T06:43:02.129Z,100.00
2023-01-12T06:45:33.499Z,100.00
2023-01-12T06:48:01.039Z,100.00
2023-01-12T06:50:28.581Z,100.00
2023-01-12T06:52:58.830Z,100.00
2023-01-12T06:55:26.493Z,100.00
2023-01-12T06:57:54.074Z,100.00
2023-01-12T07:00:22.318Z,100.00
2023-01-12T07:02:54.737Z,100.00
2023-01-12T07:05:22.349Z,100.00
2023-01-12T07:07:49.901Z,100.00
2023-01-12T07:10:18.279Z,100.00
2023-01-12T07:12:45.756Z,100.00
2023-01-12T07:15:14.488Z,100.00
2023-01-12T07:17:41.968Z,100.00
2023-01-12T07:20:12.143Z,100.00
2023-01-12T07:22:39.625Z,100.00
2023-01-12T07:25:07.751Z,100.00
2023-01-12T07:27:35.269Z,100.00
2023-01-12T07:30:02.797Z,100.00
2023-01-12T07:32:30.408Z,100.00
2023-01-12T07:34:57.893Z,100.00
2023-01-12T07:37:26.801Z,100.00
2023-01-12T07:39:54.307Z,100.00
2023-01-12T07:42:24.802Z,100.00
2023-01-12T07:44:53.071Z,100.00
2023-01-12T07:47:20.623Z,100.00
2023-01-12T07:49:48.263Z,100.00
2023-01-12T07:52:15.739Z,100.00
2023-01-12T07:54:44.553Z,100.00
2023-01-12T07:57:12.455Z,100.00
2023-01-12T07:59:40.234Z,100.00
2023-01-12T08:02:08.007Z,100.00
2023-01-12T08:04:35.526Z,100.00
2023-01-12T08:07:03.204Z,100.00
2023-01-12T08:09:31.471Z,100.00
2023-01-12T08:12:00.476Z,100.00
2023-01-12T08:14:33.204Z,100.00
2023-01-12T08:17:02.936Z,100.00
2023-01-12T08:19:37.347Z,100.00
2023-01-12T08:22:12.453Z,100.00
2023-01-12T08:24:46.673Z,100.00
2023-01-12T08:27:19.595Z,100.00
2023-01-12T08:29:50.737Z,100.00
2023-01-12T08:32:19.080Z,100.00
2023-01-12T08:36:35.648Z,100.00
2023-01-12T08:41:25.875Z,100.00
2023-01-12T08:44:06.457Z,100.00
2023-01-12T08:46:35.475Z,100.00
2023-01-12T08:49:05.720Z,100.00
2023-01-12T08:51:34.979Z,100.00
2023-01-12T08:54:03.340Z,100.00
2023-01-12T08:56:32.460Z,100.00
2023-01-12T08:59:00.061Z,100.00
2023-01-12T09:01:32.356Z,100.00
2023-01-12T09:05:15.519Z,100.00
2023-01-12T09:07:47.224Z,100.00
2023-01-12T09:10:15.265Z,100.00
2023-01-12T09:12:44.658Z,100.00
2023-01-12T09:15:12.768Z,100.00
2023-01-12T09:17:40.317Z,100.00
2023-01-12T09:20:08.258Z,100.00
2023-01-12T09:22:35.836Z,100.00
2023-01-12T09:25:03.405Z,100.00
2023-01-12T09:27:33.358Z,100.00
2023-01-12T09:30:02.315Z,100.00
2023-01-12T09:32:36.917Z,100.00
2023-01-12T09:35:05.056Z,100.00
2023-01-12T09:37:33.210Z,100.00
2023-01-12T09:40:01.107Z,100.00
2023-01-12T09:42:46.173Z,100.00
2023-01-12T09:45:37.618Z,100.00
2023-01-12T09:48:06.722Z,100.00
2023-01-12T09:50:36.550Z,100.00
2023-01-12T09:53:06.994Z,100.00
2023-01-12T09:55:42.814Z,100.00
2023-01-12T09:58:21.237Z,100.00
2023-01-12T10:00:53.579Z,100.00
2023-01-12T10:03:28.356Z,100.00
2023-01-12T10:05:58.221Z,100.00
2023-01-12T10:08:31.649Z,100.00
2023-01-12T10:11:06.683Z,100.00
2023-01-12T10:13:45.493Z,100.00
2023-01-12T10:16:18.401Z,100.00
2023-01-12T10:18:47.987Z,100.00
2023-01-12T10:21:15.609Z,100.00
2023-01-12T10:23:43.474Z,100.00
2023-01-12T10:26:18.673Z,100.00
2023-01-12T10:28:47.253Z,100.00
2023-01-12T10:31:18.083Z,100.00
2023-01-12T10:34:03.069Z,100.00
2023-01-12T10:36:31.110Z,100.00
2023-01-12T10:39:03.030Z,100.00
2023-01-12T10:41:31.418Z,100.00
2023-01-12T10:44:15.252Z,100.00
2023-01-12T10:46:44.172Z,100.00
2023-01-12T10:49:19.638Z,100.00
2023-01-12T10:51:53.688Z,100.00
2023-01-12T10:54:22.114Z,100.00
2023-01-12T10:56:56.782Z,100.00
2023-01-12T10:59:26.542Z,100.00
2023-01-12T11:02:13.812Z,100.00
2023-01-12T11:04:43.051Z,100.00
2023-01-12T11:07:12.098Z,100.00
2023-01-12T11:09:40.446Z,100.00
2023-01-12T11:12:21.332Z,100.00
2023-01-12T11:14:59.438Z,100.00
2023-01-12T11:17:39.780Z,100.00
2023-01-12T11:20:16.469Z,100.00
2023-01-12T11:22:44.296Z,100.00
2023-01-12T11:25:14.946Z,100.00
2023-01-12T11:27:46.724Z,100.00
2023-01-12T11:30:20.939Z,100.00
2023-01-12T11:32:55.243Z,100.00
2023-01-12T11:35:34.932Z,100.00
2023-01-12T11:38:11.236Z,100.00
2023-01-12T11:40:39.783Z,100.00
2023-01-12T11:43:34.281Z,100.00
2023-01-12T11:46:04.981Z,100.00
2023-01-12T11:48:38.520Z,100.00
2023-01-12T11:51:06.168Z,100.00
2023-01-12T11:53:36.981Z,100.00
2023-01-12T11:56:11.249Z,100.00
2023-01-12T11:58:46.444Z,100.00
2023-01-12T12:01:19.045Z,100.00
2023-01-12T12:03:59.454Z,100.00
2023-01-12T12:06:46.170Z,100.00
2023-01-12T12:09:27.393Z,100.00
2023-01-12T12:11:58.561Z,100.00
2023-01-12T12:14:44.552Z,100.00
2023-01-12T12:17:15.495Z,100.00
2023-01-12T12:19:52.257Z,100.00
2023-01-12T12:22:31.042Z,100.00
2023-01-12T12:25:08.810Z,100.00
2023-01-12T12:27:48.756Z,100.00
2023-01-12T12:30:33.566Z,100.00
2023-01-12T12:33:06.415Z,100.00
2023-01-12T12:35:45.125Z,100.00
2023-01-12T12:38:24.586Z,100.00
2023-01-12T12:41:20.170Z,100.00
2023-01-12T12:44:13.092Z,100.00
2023-01-12T12:46:48.576Z,100.00
2023-01-12T12:49:22.066Z,100.00
2023-01-12T12:51:52.152Z,100.00
2023-01-12T12:54:21.489Z,100.00
2023-01-12T12:56:49.946Z,100.00
2023-01-12T12:59:54.464Z,100.00
2023-01-12T13:03:02.129Z,100.00
2023-01-12T13:05:44.763Z,100.00
2023-01-12T13:08:22.051Z,100.00
2023-01-12T13:10:52.248Z,100.00
2023-01-12T13:13:27.333Z,100.00
2023-01-12T13:16:45.734Z,100.00
2023-01-12T13:19:15.641Z,100.00
2023-01-12T13:21:56.313Z,100.00
2023-01-12T13:24:40.436Z,100.00
2023-01-12T13:27:47.294Z,100.00
2023-01-12T13:30:39.257Z,100.00
2023-01-12T13:33:18.795Z,100.00
2023-01-12T13:36:02.457Z,100.00
2023-01-12T13:38:38.594Z,100.00
2023-01-12T13:41:42.935Z,100.00
2023-01-12T13:44:16.157Z,100.00
2023-01-12T13:46:46.360Z,100.00
2023-01-12T13:49:30.391Z,100.00
2023-01-12T13:52:03.731Z,100.00
2023-01-12T13:54:31.993Z,100.00
2023-01-12T13:57:02.824Z,100.00
2023-01-12T13:59:31.220Z,100.00
2023-01-12T14:01:59.302Z,100.00
2023-01-12T14:04:37.668Z,100.00
2023-01-12T14:07:12.859Z,100.00
2023-01-12T14:09:47.746Z,100.00
2023-01-12T14:13:07.048Z,100.00
2023-01-12T14:15:55.927Z,100.00
2023-01-12T14:18:25.538Z,100.00
2023-01-12T14:20:55.072Z,100.00
2023-01-12T14:23:29.035Z,100.00
2023-01-12T14:26:08.528Z,100.00
2023-01-12T14:28:37.027Z,100.00
2023-01-12T14:31:07.434Z,100.00
2023-01-12T14:33:37.975Z,100.00
2023-01-12T14:36:08.165Z,100.00
2023-01-12T14:38:36.578Z,100.00
2023-01-12T14:41:28.397Z,100.00
2023-01-12T14:44:13.830Z,100.00
2023-01-12T14:46:50.267Z,100.00
2023-01-12T14:49:21.172Z,100.00
2023-01-12T14:51:52.644Z,100.00
2023-01-12T14:54:21.901Z,100.00
2023-01-12T14:56:56.292Z,100.00
2023-01-12T14:59:25.700Z,100.00
2023-01-12T15:01:55.136Z,100.00
2023-01-12T15:04:24.948Z,100.00
2023-01-12T15:07:01.956Z,100.00
2023-01-12T15:09:31.719Z,100.00
2023-01-12T15:11:59.815Z,100.00
2023-01-12T15:14:30.068Z,100.00
2023-01-12T15:17:16.454Z,100.00
2023-01-12T15:20:01.234Z,100.00
2023-01-12T15:22:47.359Z,100.00
2023-01-12T15:25:34.224Z,100.00
2023-01-12T15:28:02.720Z,100.00
2023-01-12T15:30:31.243Z,100.00
2023-01-12T15:33:01.013Z,100.00
2023-01-12T15:35:30.400Z,100.00
2023-01-12T15:38:05.212Z,100.00
2023-01-12T15:40:35.019Z,100.00
2023-01-12T15:43:04.731Z,100.00
2023-01-12T15:45:35.092Z,100.00
2023-01-12T15:48:04.926Z,100.00
2023-01-12T15:50:33.283Z,100.00
2023-01-12T15:53:01.564Z,100.00
2023-01-12T15:55:31.340Z,100.00
2023-01-12T15:57:59.177Z,100.00
2023-01-12T16:00:30.320Z,100.00
2023-01-12T16:02:58.070Z,100.00
2023-01-12T16:05:27.412Z,100.00
2023-01-12T16:07:55.347Z,100.00
2023-01-12T16:10:23.205Z,100.00
2023-01-12T16:12:50.852Z,100.00
2023-01-12T16:15:20.311Z,100.00
2023-01-12T16:17:48.750Z,100.00
2023-01-12T16:20:17.526Z,100.00
2023-01-12T16:22:47.651Z,100.00
2023-01-12T16:25:16.255Z,100.00
2023-01-12T16:27:44.716Z,100.00
2023-01-12T16:30:16.146Z,100.00
2023-01-12T16:32:46.696Z,100.00
2023-01-12T16:35:15.736Z,100.00
2023-01-12T16:37:44.668Z,100.00
2023-01-12T16:40:15.044Z,100.00
2023-01-12T16:42:43.080Z,100.00
2023-01-12T16:45:11.807Z,100.00
2023-01-12T16:47:40.161Z,100.00
2023-01-12T16:50:08.699Z,100.00
2023-01-12T16:52:42.438Z,100.00
2023-01-12T16:55:11.003Z,100.00
2023-01-12T16:57:41.065Z,100.00
2023-01-12T17:00:10.435Z,100.00
2023-01-12T17:02:38.299Z,100.00
2023-01-12T17:05:08.454Z,100.00
2023-01-12T17:07:39.229Z,100.00
2023-01-12T17:10:09.021Z,100.00
2023-01-12T17:12:36.712Z,100.00
2023-01-12T17:15:09.429Z,100.00
2023-01-12T17:17:38.294Z,100.00
2023-01-12T17:20:06.865Z,100.00
2023-01-12T17:22:34.737Z,100.00
2023-01-12T17:25:02.563Z,100.00
2023-01-12T17:27:32.043Z,100.00
2023-01-12T17:29:59.794Z,100.00
2023-01-12T17:32:29.624Z,100.00
2023-01-12T17:34:57.794Z,100.00
2023-01-12T17:37:25.893Z,100.00
2023-01-12T17:39:53.672Z,100.00
2023-01-12T17:42:39.471Z,100.00
2023-01-12T17:45:08.606Z,100.00
2023-01-12T17:47:38.179Z,100.00
2023-01-12T17:50:06.578Z,100.00
2023-01-12T17:52:35.811Z,100.00
2023-01-12T17:55:04.474Z,100.00
2023-01-12T17:57:36.900Z,100.00
2023-01-12T18:00:06.726Z,100.00
2023-01-12T18:02:42.826Z,100.00
2023-01-12T18:05:14.013Z,100.00
2023-01-12T18:07:43.655Z,100.00
2023-01-12T18:10:13.072Z,100.00
2023-01-12T18:12:42.639Z,100.00
2023-01-12T18:15:19.987Z,100.00
2023-01-12T18:17:49.137Z,100.00
2023-01-12T18:20:18.295Z,100.00
2023-01-12T18:22:46.385Z,100.00
2023-01-12T18:25:15.267Z,100.00
2023-01-12T18:27:45.045Z,100.00
2023-01-12T18:30:30.276Z,100.00
2023-01-12T18:33:06.839Z,100.00
2023-01-12T18:35:37.245Z,100.00
2023-01-12T18:38:05.427Z,100.00
2023-01-12T18:40:34.326Z,100.00
2023-01-12T18:43:04.852Z,100.00
2023-01-12T18:45:34.011Z,100.00
2023-01-12T18:48:19.897Z,100.00
2023-01-12T18:51:22.925Z,100.00
2023-01-12T18:53:51.972Z,100.00
2023-01-12T18:56:19.769Z,100.00
2023-01-12T18:58:48.872Z,100.00
2023-01-12T19:01:20.023Z,100.00
2023-01-12T19:04:03.490Z,100.00
2023-01-12T19:09:53.414Z,100.00
2023-01-12T19:12:30.647Z,100.00
2023-01-12T19:15:30.055Z,100.00
2023-01-12T19:17:57.965Z,100.00
2023-01-12T19:20:29.049Z,100.00
2023-01-12T19:23:16.902Z,100.00
2023-01-12T19:26:02.764Z,100.00
2023-01-12T19:28:36.303Z,100.00
2023-01-12T19:31:06.269Z,100.00
2023-01-12T19:33:34.299Z,100.00
2023-01-12T19:36:05.914Z,100.00
2023-01-12T19:38:35.893Z,100.00
2023-01-12T19:41:11.508Z,100.00
2023-01-12T19:43:41.012Z,100.00
2023-01-12T19:46:08.709Z,100.00
2023-01-12T19:48:37.479Z,100.00
2023-01-12T19:51:09.520Z,100.00
2023-01-12T19:53:39.889Z,100.00
2023-01-12T19:56:11.186Z,100.00
2023-01-12T19:58:39.047Z,100.00
2023-01-12T20:01:07.674Z,100.00
2023-01-12T20:03:36.144Z,100.00
2023-01-12T20:06:06.714Z,100.00
2023-01-12T20:08:34.740Z,100.00
2023-01-12T20:11:05.458Z,100.00
2023-01-12T20:13:33.515Z,100.00
2023-01-12T20:16:06.516Z,100.00
2023-01-12T20:18:34.345Z,100.00
2023-01-12T20:21:03.400Z,100.00
2023-01-12T20:23:31.625Z,100.00
2023-01-12T20:25:59.361Z,100.00
2023-01-12T20:28:31.441Z,100.00
2023-01-12T20:30:59.492Z,100.00
2023-01-12T20:33:28.294Z,100.00
2023-01-12T20:35:55.913Z,100.00
2023-01-12T20:38:25.166Z,100.00
2023-01-12T20:40:52.808Z,100.00
2023-01-12T20:43:22.546Z,100.00
2023-01-12T20:45:52.388Z,100.00
2023-01-12T20:48:20.394Z,100.00
2023-01-12T20:50:48.539Z,100.00
2023-01-12T20:53:17.108Z,100.00
2023-01-12T20:55:45.377Z,100.00
2023-01-12T20:58:16.124Z,100.00
2023-01-12T21:00:43.996Z,100.00
2023-01-12T21:03:13.265Z,100.00
2023-01-12T21:05:44.596Z,100.00
2023-01-12T21:08:13.177Z,100.00
2023-01-12T21:10:42.470Z,100.00
2023-01-12T21:13:10.400Z,100.00
2023-01-12T21:15:38.532Z,100.00
2023-01-12T21:18:06.167Z,100.00
2023-01-12T21:20:35.690Z,100.00
2023-01-12T21:23:04.613Z,100.00
2023-01-12T21:25:32.219Z,100.00
2023-01-12T21:27:59.786Z,100.00
2023-01-12T21:30:29.744Z,100.00
2023-01-12T21:32:57.778Z,100.00
2023-01-12T21:35:26.385Z,100.00
2023-01-12T21:37:55.456Z,100.00
2023-01-12T21:40:22.953Z,100.00
2023-01-12T21:43:09.295Z,100.00
2023-01-12T21:45:38.063Z,100.00
2023-01-12T21:48:06.068Z,100.00
2023-01-12T21:50:34.270Z,100.00
2023-01-12T21:53:03.975Z,100.00
2023-01-12T21:55:32.292Z,100.00
2023-01-12T21:58:01.757Z,100.00
2023-01-12T22:00:29.984Z,100.00
2023-01-12T22:03:00.417Z,100.00
2023-01-12T22:05:27.994Z,100.00
2023-01-12T22:07:57.669Z,100.00
2023-01-12T22:10:30.392Z,100.00
2023-01-12T22:12:59.854Z,100.00
2023-01-12T22:15:29.093Z,100.00
2023-01-12T22:17:56.990Z,100.00
2023-01-12T22:20:25.450Z,100.00
2023-01-12T22:22:54.132Z,100.00
2023-01-12T22:25:21.959Z,100.00
2023-01-12T22:27:50.986Z,100.00
2023-01-12T22:30:20.577Z,100.00
2023-01-12T22:32:48.571Z,100.00
2023-01-12T22:35:16.456Z,100.00
2023-01-12T22:37:44.037Z,100.00
2023-01-12T22:40:13.075Z,100.00
2023-01-12T22:42:58.311Z,100.00
2023-01-12T22:45:27.418Z,100.00
2023-01-12T22:47:58.771Z,100.00
2023-01-12T22:50:26.414Z,100.00
2023-01-12T22:52:54.536Z,100.00
2023-01-12T22:55:23.395Z,100.00
2023-01-12T22:57:51.239Z,100.00
2023-01-12T23:00:20.741Z,100.00
2023-01-12T23:03:02.636Z,100.00
2023-01-12T23:05:33.428Z,100.00
2023-01-12T23:08:01.047Z,100.00
2023-01-12T23:10:30.236Z,100.00
2023-01-12T23:13:15.851Z,100.00
2023-01-12T23:15:46.981Z,100.00
2023-01-12T23:18:17.571Z,100.00
2023-01-12T23:20:45.941Z,100.00
2023-01-12T23:23:13.835Z,100.00
2023-01-12T23:25:44.327Z,100.00
2023-01-12T23:28:12.883Z,100.00
2023-01-12T23:30:41.157Z,100.00
2023-01-12T23:33:08.886Z,100.00
2023-01-12T23:35:39.484Z,100.00
2023-01-12T23:38:07.511Z,100.00
2023-01-12T23:40:35.238Z,100.00
2023-01-12T23:43:03.208Z,100.00
2023-01-12T23:45:33.801Z,100.00
2023-01-12T23:48:01.368Z,100.00
2023-01-12T23:50:28.916Z,100.00
2023-01-12T23:53:00.734Z,100.00
2023-01-12T23:55:29.918Z,100.00
2023-01-12T23:57:57.980Z,100.00
